createdAt,value
2023-02-16T00:01:02.182Z,18.83
2023-02-16T00:03:28.980Z,18.23
2023-02-16T00:05:55.793Z,17.00
2023-02-16T00:08:22.466Z,18.80
2023-02-16T00:10:49.273Z,18.07
2023-02-16T00:13:24.996Z,18.20
2023-02-16T00:15:51.737Z,19.03
2023-02-16T00:18:20.904Z,18.63
2023-02-16T00:20:49.938Z,18.87
2023-02-16T00:23:17.060Z,19.80
2023-02-16T00:25:43.792Z,18.83
2023-02-16T00:28:18.066Z,19.23
2023-02-16T00:30:45.282Z,19.57
2023-02-16T00:33:18.811Z,19.77
2023-02-16T00:35:45.850Z,18.87
2023-02-16T00:38:13.616Z,19.17
2023-02-16T00:40:41.828Z,19.70
2023-02-16T00:43:27.878Z,20.10
2023-02-16T00:45:55.751Z,20.07
2023-02-16T00:48:23.508Z,19.77
2023-02-16T00:50:53.325Z,18.83
2023-02-16T00:53:20.042Z,19.40
2023-02-16T00:55:47.034Z,19.70
2023-02-16T00:58:25.426Z,20.27
2023-02-16T01:00:55.469Z,20.33
2023-02-16T01:03:28.899Z,20.30
2023-02-16T01:05:56.944Z,20.47
2023-02-16T01:08:23.549Z,19.30
2023-02-16T01:10:51.532Z,20.33
2023-02-16T01:13:18.560Z,20.97
2023-02-16T01:15:45.742Z,20.30
2023-02-16T01:18:15.297Z,20.63
2023-02-16T01:20:43.478Z,20.80
2023-02-16T01:23:10.085Z,21.10
2023-02-16T01:25:37.949Z,20.10
2023-02-16T01:28:18.467Z,20.60
2023-02-16T01:30:45.354Z,20.20
2023-02-16T01:33:12.010Z,20.20
2023-02-16T01:35:39.069Z,20.53
2023-02-16T01:38:05.793Z,20.77
2023-02-16T01:40:35.538Z,21.43
2023-02-16T01:43:20.362Z,20.20
2023-02-16T01:45:55.370Z,20.53
2023-02-16T01:48:26.774Z,19.37
2023-02-16T01:51:03.091Z,20.00
2023-02-16T01:53:29.970Z,21.27
2023-02-16T01:56:03.408Z,19.70
2023-02-16T01:58:36.017Z,20.73
2023-02-16T02:01:02.887Z,20.83
2023-02-16T02:03:35.175Z,20.90
2023-02-16T02:06:02.399Z,20.63
2023-02-16T02:08:35.068Z,20.43
2023-02-16T02:11:09.705Z,19.63
2023-02-16T02:14:01.808Z,20.20
2023-02-16T02:16:29.244Z,20.80
2023-02-16T02:18:56.179Z,20.93
2023-02-16T02:21:26.044Z,20.47
2023-02-16T02:24:51.419Z,20.13
2023-02-16T02:27:23.992Z,19.97
2023-02-16T02:29:59.995Z,20.03
2023-02-16T02:32:48.538Z,20.17
2023-02-16T02:35:26.720Z,20.87
2023-02-16T02:37:56.169Z,21.37
2023-02-16T02:40:56.513Z,20.40
2023-02-16T02:43:34.625Z,21.47
2023-02-16T02:46:08.614Z,20.60
2023-02-16T02:48:35.451Z,20.83
2023-02-16T02:51:10.518Z,19.83
2023-02-16T02:53:44.292Z,20.13
2023-02-16T02:56:13.890Z,19.90
2023-02-16T02:58:41.149Z,19.40
2023-02-16T03:01:09.335Z,19.57
2023-02-16T03:03:44.181Z,20.17
2023-02-16T03:06:26.475Z,20.33
2023-02-16T03:09:02.730Z,20.67
2023-02-16T03:11:29.563Z,19.77
2023-02-16T03:14:00.669Z,19.80
2023-02-16T03:16:34.560Z,20.03
2023-02-16T03:19:02.971Z,20.40
2023-02-16T03:21:29.920Z,20.83
2023-02-16T03:23:58.269Z,20.00
2023-02-16T03:26:26.803Z,21.00
2023-02-16T03:28:53.643Z,20.47
2023-02-16T03:31:24.031Z,19.93
2023-02-16T03:33:51.963Z,19.43
2023-02-16T03:36:18.673Z,20.90
2023-02-16T03:38:45.667Z,20.70
2023-02-16T03:41:12.278Z,19.43
2023-02-16T03:43:38.965Z,20.80
2023-02-16T03:46:05.887Z,20.57
2023-02-16T03:48:32.540Z,20.87
2023-02-16T03:50:59.131Z,20.70
2023-02-16T03:53:25.908Z,21.17
2023-02-16T03:55:52.519Z,22.40
2023-02-16T03:58:21.778Z,21.47
2023-02-16T04:00:48.581Z,21.87
2023-02-16T04:03:15.566Z,20.43
2023-02-16T04:05:42.256Z,19.57
2023-02-16T04:08:10.075Z,20.07
2023-02-16T04:10:37.742Z,21.27
2023-02-16T04:13:04.835Z,21.30
2023-02-16T04:15:32.184Z,20.73
2023-02-16T04:17:59.301Z,21.00
2023-02-16T04:20:29.345Z,21.20
2023-02-16T04:22:56.377Z,20.53
2023-02-16T04:25:23.228Z,21.13
2023-02-16T04:27:50.645Z,21.17
2023-02-16T04:30:19.615Z,20.77
2023-02-16T04:32:46.316Z,21.97
2023-02-16T04:35:13.153Z,20.73
2023-02-16T04:37:39.931Z,20.70
2023-02-16T04:40:08.462Z,20.60
2023-02-16T04:42:35.294Z,20.30
2023-02-16T04:45:02.013Z,20.23
2023-02-16T04:47:28.779Z,20.57
2023-02-16T04:49:55.380Z,21.10
2023-02-16T04:52:22.207Z,21.03
2023-02-16T04:54:48.792Z,22.00
2023-02-16T04:57:16.107Z,21.10
2023-02-16T04:59:43.494Z,21.83
2023-02-16T05:02:10.156Z,20.87
2023-02-16T05:04:36.967Z,21.30
2023-02-16T05:07:03.875Z,20.77
2023-02-16T05:09:30.464Z,20.23
2023-02-16T05:11:57.307Z,21.57
2023-02-16T05:14:29.756Z,20.07
2023-02-16T05:16:56.425Z,20.80
2023-02-16T05:19:23.015Z,20.43
2023-02-16T05:21:50.221Z,21.13
2023-02-16T05:24:16.802Z,20.87
2023-02-16T05:26:43.501Z,21.63
2023-02-16T05:29:11.060Z,21.93
2023-02-16T05:31:37.870Z,22.20
2023-02-16T05:34:04.603Z,21.70
2023-02-16T05:36:31.303Z,22.53
2023-02-16T05:38:57.962Z,21.33
2023-02-16T05:41:24.643Z,20.10
2023-02-16T05:43:53.011Z,20.33
2023-02-16T05:46:21.406Z,22.53
2023-02-16T05:48:48.562Z,21.53
2023-02-16T05:51:15.290Z,21.70
2023-02-16T05:53:42.073Z,20.77
2023-02-16T05:56:09.449Z,22.27
2023-02-16T05:58:36.661Z,21.73
2023-02-16T06:01:04.149Z,21.97
2023-02-16T06:03:31.123Z,21.63
2023-02-16T06:06:00.705Z,23.17
2023-02-16T06:08:28.081Z,22.40
2023-02-16T06:10:55.415Z,22.53
2023-02-16T06:13:23.554Z,22.77
2023-02-16T06:15:55.747Z,21.03
2023-02-16T06:18:24.563Z,21.43
2023-02-16T06:20:51.879Z,21.57
2023-02-16T06:23:18.673Z,22.30
2023-02-16T06:25:49.310Z,22.30
2023-02-16T06:28:16.063Z,22.13
2023-02-16T06:30:42.789Z,21.90
2023-02-16T06:33:09.594Z,22.23
2023-02-16T06:35:36.167Z,20.93
2023-02-16T06:38:02.873Z,22.00
2023-02-16T06:40:29.608Z,20.50
2023-02-16T06:42:56.288Z,20.37
2023-02-16T06:45:22.894Z,21.93
2023-02-16T06:47:49.597Z,21.57
2023-02-16T06:50:16.212Z,21.60
2023-02-16T06:52:43.005Z,21.50
2023-02-16T06:55:09.758Z,20.73
2023-02-16T06:57:36.426Z,21.90
2023-02-16T07:00:04.931Z,21.77
2023-02-16T07:02:31.744Z,20.63
2023-02-16T07:04:58.377Z,21.40
2023-02-16T07:07:25.013Z,21.07
2023-02-16T07:09:51.683Z,20.57
2023-02-16T07:12:18.415Z,20.73
2023-02-16T07:14:44.999Z,21.27
2023-02-16T07:17:11.721Z,20.73
2023-02-16T07:19:38.320Z,20.17
2023-02-16T07:22:04.960Z,20.37
2023-02-16T07:24:31.602Z,20.13
2023-02-16T07:26:58.323Z,20.03
2023-02-16T07:29:24.905Z,21.47
2023-02-16T07:31:52.070Z,21.53
2023-02-16T07:34:20.821Z,21.23
2023-02-16T07:36:47.642Z,20.30
2023-02-16T07:39:14.330Z,20.33
2023-02-16T07:41:40.995Z,19.67
2023-02-16T07:44:08.373Z,20.23
2023-02-16T07:46:35.114Z,19.43
2023-02-16T07:49:01.759Z,18.80
2023-02-16T07:51:30.797Z,18.20
2023-02-16T07:53:59.651Z,18.17
2023-02-16T07:56:28.932Z,19.43
2023-02-16T07:58:56.471Z,17.73
2023-02-16T08:01:24.161Z,18.00
2023-02-16T08:03:51.773Z,17.33
2023-02-16T08:06:18.945Z,17.90
2023-02-16T08:08:46.377Z,17.03
2023-02-16T08:11:19.098Z,17.10
2023-02-16T08:13:46.728Z,15.93
2023-02-16T08:16:20.518Z,16.07
2023-02-16T08:18:47.757Z,16.77
2023-02-16T08:21:20.987Z,17.03
2023-02-16T08:23:56.756Z,16.30
2023-02-16T08:26:25.706Z,16.80
2023-02-16T08:28:52.525Z,16.20
2023-02-16T08:31:21.967Z,15.23
2023-02-16T08:33:50.060Z,16.03
2023-02-16T08:36:24.602Z,14.73
2023-02-16T08:38:53.334Z,15.33
2023-02-16T08:41:21.713Z,15.40
2023-02-16T08:43:49.610Z,16.53
2023-02-16T08:46:17.134Z,15.37
2023-02-16T08:48:44.157Z,16.70
2023-02-16T08:51:19.380Z,15.20
2023-02-16T08:53:47.241Z,15.30
2023-02-16T08:56:14.846Z,15.10
2023-02-16T08:58:41.536Z,16.13
2023-02-16T09:01:09.136Z,16.20
2023-02-16T09:03:37.306Z,16.23
2023-02-16T09:06:05.949Z,17.00
2023-02-16T09:08:33.281Z,16.40
2023-02-16T09:11:04.693Z,16.13
2023-02-16T09:13:34.346Z,16.67
2023-02-16T09:16:10.769Z,16.17
2023-02-16T09:18:38.866Z,16.00
2023-02-16T09:21:08.229Z,16.80
2023-02-16T09:23:34.886Z,16.17
2023-02-16T09:26:01.707Z,16.23
2023-02-16T09:28:29.783Z,16.10
2023-02-16T09:30:56.746Z,15.80
2023-02-16T09:33:23.429Z,17.50
2023-02-16T09:35:50.039Z,15.93
2023-02-16T09:38:16.739Z,15.93
2023-02-16T09:40:44.822Z,15.80
2023-02-16T09:43:32.102Z,16.30
2023-02-16T09:45:59.192Z,15.53
2023-02-16T09:48:42.813Z,15.50
2023-02-16T09:54:37.425Z,16.07
2023-02-16T09:57:27.051Z,14.57
2023-02-16T10:00:06.101Z,15.47
2023-02-16T10:02:44.842Z,14.43
2023-02-16T10:05:20.431Z,15.67
2023-02-16T10:08:00.525Z,15.70
2023-02-16T10:10:33.204Z,16.17
2023-02-16T10:13:12.331Z,15.50
2023-02-16T10:15:41.468Z,16.13
2023-02-16T10:18:18.750Z,15.87
2023-02-16T10:20:48.660Z,14.83
2023-02-16T10:24:01.846Z,15.30
2023-02-16T10:26:32.377Z,15.47
2023-02-16T10:29:06.396Z,15.90
2023-02-16T10:31:48.730Z,15.00
2023-02-16T10:34:39.936Z,15.33
2023-02-16T10:37:34.095Z,15.83
2023-02-16T10:40:35.736Z,15.67
2023-02-16T10:43:21.327Z,15.17
2023-02-16T10:45:52.413Z,15.87
2023-02-16T10:48:21.238Z,15.10
2023-02-16T10:51:08.568Z,14.73
2023-02-16T10:53:42.579Z,15.10
2023-02-16T10:56:24.218Z,14.63
2023-02-16T10:58:51.071Z,15.00
2023-02-16T11:01:28.999Z,14.57
2023-02-16T11:03:55.770Z,15.47
2023-02-16T11:06:24.266Z,14.63
2023-02-16T11:08:56.269Z,14.93
2023-02-16T11:11:38.979Z,14.60
2023-02-16T11:14:09.128Z,15.17
2023-02-16T11:16:35.996Z,15.10
2023-02-16T11:19:09.145Z,14.60
2023-02-16T11:21:46.073Z,15.43
2023-02-16T11:24:38.557Z,14.50
2023-02-16T11:27:05.390Z,14.57
2023-02-16T11:29:33.036Z,14.67
2023-02-16T11:32:04.996Z,15.03
2023-02-16T11:34:39.360Z,15.23
2023-02-16T11:37:33.756Z,15.10
2023-02-16T11:40:26.225Z,15.30
2023-02-16T11:42:56.123Z,14.97
2023-02-16T11:45:34.579Z,15.00
2023-02-16T11:48:05.721Z,14.10
2023-02-16T11:50:35.283Z,14.03
2023-02-16T11:53:10.850Z,14.63
2023-02-16T11:55:46.059Z,14.50
2023-02-16T11:58:20.163Z,14.37
2023-02-16T12:01:09.296Z,14.27
2023-02-16T12:03:50.389Z,13.30
2023-02-16T12:06:30.486Z,14.40
2023-02-16T12:09:24.874Z,14.23
2023-02-16T12:12:00.929Z,14.80
2023-02-16T12:14:36.778Z,14.03
2023-02-16T12:17:05.195Z,14.37
2023-02-16T12:19:52.176Z,13.97
2023-02-16T12:22:40.082Z,14.40
2023-02-16T12:25:26.520Z,14.90
2023-02-16T12:28:06.552Z,13.80
2023-02-16T12:30:38.965Z,13.60
2023-02-16T12:33:18.608Z,13.97
2023-02-16T12:36:01.011Z,14.47
2023-02-16T12:38:42.049Z,13.17
2023-02-16T12:41:11.865Z,13.80
2023-02-16T12:43:43.855Z,14.53
2023-02-16T12:46:28.252Z,14.07
2023-02-16T12:48:55.326Z,14.23
2023-02-16T12:51:27.974Z,13.27
2023-02-16T12:54:25.288Z,13.30
2023-02-16T12:57:01.823Z,14.33
2023-02-16T12:59:49.081Z,14.47
2023-02-16T13:02:27.353Z,13.63
2023-02-16T13:05:27.159Z,13.67
2023-02-16T13:08:02.304Z,13.77
2023-02-16T13:11:09.319Z,14.10
2023-02-16T13:13:37.612Z,13.37
2023-02-16T13:16:28.714Z,13.30
2023-02-16T13:18:56.085Z,13.33
2023-02-16T13:21:50.459Z,13.87
2023-02-16T13:24:50.305Z,13.70
2023-02-16T13:27:50.094Z,13.23
2023-02-16T13:30:49.105Z,13.83
2023-02-16T13:33:26.308Z,14.37
2023-02-16T13:35:58.968Z,13.50
2023-02-16T13:38:53.541Z,13.87
2023-02-16T13:41:41.716Z,13.37
2023-02-16T13:44:14.698Z,14.47
2023-02-16T13:46:48.439Z,13.83
2023-02-16T13:49:37.880Z,13.70
2023-02-16T13:52:05.830Z,13.40
2023-02-16T13:54:39.539Z,13.93
2023-02-16T13:57:12.094Z,13.43
2023-02-16T13:59:39.212Z,13.33
2023-02-16T14:02:18.573Z,14.03
2023-02-16T14:04:48.323Z,13.27
2023-02-16T14:07:17.793Z,13.03
2023-02-16T14:09:50.344Z,13.70
2023-02-16T14:12:20.319Z,13.60
2023-02-16T14:14:57.581Z,14.20
2023-02-16T14:17:33.389Z,13.00
2023-02-16T14:20:04.440Z,13.40
2023-02-16T14:22:43.437Z,13.53
2023-02-16T14:25:22.354Z,13.57
2023-02-16T14:27:53.787Z,13.43
2023-02-16T14:30:42.277Z,13.47
2023-02-16T14:33:12.173Z,13.53
2023-02-16T14:36:04.060Z,13.00
2023-02-16T14:38:41.811Z,14.00
2023-02-16T14:41:34.536Z,13.13
2023-02-16T14:44:04.212Z,12.77
2023-02-16T14:46:57.996Z,13.60
2023-02-16T14:49:27.634Z,13.93
2023-02-16T14:52:56.148Z,14.37
2023-02-16T14:56:00.992Z,13.20
2023-02-16T14:58:46.418Z,13.37
2023-02-16T15:01:16.335Z,13.63
2023-02-16T15:03:48.343Z,13.73
2023-02-16T15:06:31.220Z,13.57
2023-02-16T15:09:01.099Z,13.80
2023-02-16T15:11:48.946Z,13.93
2023-02-16T15:14:15.967Z,13.33
2023-02-16T15:16:42.654Z,14.50
2023-02-16T15:19:23.058Z,14.23
2023-02-16T15:22:27.326Z,14.33
2023-02-16T15:24:55.570Z,13.87
2023-02-16T15:27:23.383Z,14.27
2023-02-16T15:30:22.458Z,14.50
2023-02-16T15:32:52.068Z,14.43
2023-02-16T15:35:33.887Z,14.33
2023-02-16T15:38:07.909Z,13.47
2023-02-16T15:40:35.546Z,13.50
2023-02-16T15:43:22.326Z,14.50
2023-02-16T15:45:51.531Z,13.73
2023-02-16T15:48:35.269Z,14.03
2023-02-16T15:51:08.034Z,14.30
2023-02-16T15:53:51.532Z,15.03
2023-02-16T15:56:24.013Z,14.37
2023-02-16T15:58:51.104Z,14.07
2023-02-16T16:01:32.051Z,13.37
2023-02-16T16:04:01.758Z,13.83
2023-02-16T16:06:34.433Z,14.10
2023-02-16T16:09:02.137Z,13.63
2023-02-16T16:11:29.278Z,14.43
2023-02-16T16:13:56.080Z,15.07
2023-02-16T16:16:22.760Z,14.37
2023-02-16T16:18:52.856Z,14.93
2023-02-16T16:21:23.621Z,14.40
2023-02-16T16:24:10.368Z,14.03
2023-02-16T16:26:58.579Z,13.90
2023-02-16T16:29:29.928Z,14.57
2023-02-16T16:31:56.786Z,14.83
2023-02-16T16:34:32.702Z,14.70
2023-02-16T16:37:00.597Z,14.17
2023-02-16T16:39:34.046Z,13.97
2023-02-16T16:42:00.765Z,14.77
2023-02-16T16:44:43.761Z,14.47
2023-02-16T16:47:20.447Z,14.43
2023-02-16T16:49:51.962Z,14.13
2023-02-16T16:52:33.482Z,14.43
2023-02-16T16:55:14.696Z,14.43
2023-02-16T16:57:41.421Z,14.63
2023-02-16T17:00:09.124Z,14.00
2023-02-16T17:02:35.875Z,13.97
2023-02-16T17:05:03.068Z,14.83
2023-02-16T17:07:29.755Z,15.97
2023-02-16T17:09:56.408Z,14.83
2023-02-16T17:12:24.897Z,15.77
2023-02-16T17:14:52.024Z,14.07
2023-02-16T17:17:19.077Z,15.37
2023-02-16T17:19:45.751Z,14.53
2023-02-16T17:22:14.623Z,14.77
2023-02-16T17:24:41.335Z,15.27
2023-02-16T17:27:08.490Z,15.07
2023-02-16T17:29:35.153Z,14.47
2023-02-16T17:32:02.990Z,15.87
2023-02-16T17:34:29.626Z,16.07
2023-02-16T17:36:57.459Z,16.20
2023-02-16T17:39:24.132Z,19.23
2023-02-16T17:41:50.905Z,15.97
2023-02-16T17:44:17.931Z,15.53
2023-02-16T17:46:45.667Z,15.40
2023-02-16T17:49:13.193Z,16.33
2023-02-16T17:51:39.938Z,16.00
2023-02-16T17:54:07.716Z,16.13
2023-02-16T17:56:35.744Z,15.20
2023-02-16T17:59:03.113Z,15.93
2023-02-16T18:01:30.277Z,15.60
2023-02-16T18:03:56.914Z,16.43
2023-02-16T18:06:23.861Z,16.53
2023-02-16T18:08:50.974Z,15.93
2023-02-16T18:11:19.051Z,15.83
2023-02-16T18:13:45.666Z,15.00
2023-02-16T18:16:18.167Z,16.67
2023-02-16T18:18:45.647Z,16.33
2023-02-16T18:21:12.245Z,17.07
2023-02-16T18:23:39.885Z,17.53
2023-02-16T18:26:07.414Z,16.27
2023-02-16T18:28:34.918Z,17.07
2023-02-16T18:31:05.131Z,16.30
2023-02-16T18:33:31.864Z,17.47
2023-02-16T18:35:58.474Z,16.20
2023-02-16T18:38:25.331Z,16.37
2023-02-16T18:40:53.719Z,16.43
2023-02-16T18:43:21.345Z,16.57
2023-02-16T18:45:48.254Z,17.33
2023-02-16T18:48:15.046Z,16.63
2023-02-16T18:50:41.739Z,16.40
2023-02-16T18:53:08.967Z,16.83
2023-02-16T18:55:35.603Z,17.00
2023-02-16T18:58:07.322Z,16.43
2023-02-16T19:00:35.381Z,17.43
2023-02-16T19:03:02.101Z,17.53
2023-02-16T19:05:28.831Z,17.23
2023-02-16T19:07:55.479Z,17.47
2023-02-16T19:10:22.309Z,17.80
2023-02-16T19:12:48.927Z,18.03
2023-02-16T19:15:16.209Z,17.03
2023-02-16T19:17:43.234Z,17.90
2023-02-16T19:20:10.552Z,17.93
2023-02-16T19:22:39.025Z,17.77
2023-02-16T19:25:07.831Z,18.07
2023-02-16T19:27:34.781Z,18.43
2023-02-16T19:30:02.178Z,17.60
2023-02-16T19:32:32.008Z,17.90
2023-02-16T19:35:01.318Z,18.27
2023-02-16T19:37:37.297Z,17.53
2023-02-16T19:40:10.001Z,18.33
2023-02-16T19:42:46.304Z,18.23
2023-02-16T19:45:21.241Z,18.73
2023-02-16T19:47:53.234Z,18.33
2023-02-16T19:50:26.036Z,18.07
2023-02-16T19:52:57.886Z,19.47
2023-02-16T19:55:25.080Z,18.47
2023-02-16T19:57:53.392Z,17.57
2023-02-16T20:00:26.634Z,18.43
2023-02-16T20:02:58.696Z,19.47
2023-02-16T20:05:47.476Z,19.07
2023-02-16T20:08:17.064Z,19.83
2023-02-16T20:10:44.413Z,19.10
2023-02-16T20:13:12.248Z,17.43
2023-02-16T20:15:38.823Z,18.80
2023-02-16T20:18:06.594Z,18.87
2023-02-16T20:20:34.315Z,18.50
2023-02-16T20:23:00.981Z,19.53
2023-02-16T20:25:27.601Z,19.43
2023-02-16T20:27:56.505Z,19.67
2023-02-16T20:30:23.370Z,18.47
2023-02-16T20:32:50.720Z,18.83
2023-02-16T20:35:17.662Z,20.03
2023-02-16T20:37:44.313Z,19.30
2023-02-16T20:40:11.483Z,19.83
2023-02-16T20:42:38.246Z,17.97
2023-02-16T20:45:05.230Z,19.37
2023-02-16T20:47:32.024Z,18.57
2023-02-16T20:49:59.969Z,18.93
2023-02-16T20:52:27.642Z,18.27
2023-02-16T20:54:54.236Z,18.83
2023-02-16T20:57:26.725Z,18.23
2023-02-16T20:59:55.244Z,18.07
2023-02-16T21:02:22.728Z,18.17
2023-02-16T21:04:49.487Z,18.50
2023-02-16T21:07:16.097Z,18.43
2023-02-16T21:09:44.045Z,19.00
2023-02-16T21:12:10.657Z,19.00
2023-02-16T21:14:37.720Z,18.50
2023-02-16T21:17:04.470Z,19.07
2023-02-16T21:19:31.193Z,18.97
2023-02-16T21:21:57.861Z,18.63
2023-02-16T21:24:24.867Z,18.17
2023-02-16T21:26:51.470Z,18.77
2023-02-16T21:29:18.155Z,19.73
2023-02-16T21:31:44.848Z,18.00
2023-02-16T21:34:11.742Z,18.80
2023-02-16T21:36:38.356Z,19.20
2023-02-16T21:39:05.579Z,18.33
2023-02-16T21:41:32.725Z,19.47
2023-02-16T21:44:09.102Z,19.37
2023-02-16T21:46:47.260Z,18.53
2023-02-16T21:49:16.925Z,18.17
2023-02-16T21:51:44.406Z,18.10
2023-02-16T21:54:14.430Z,19.07
2023-02-16T21:56:49.367Z,17.87
2023-02-16T21:59:18.047Z,17.37
2023-02-16T22:01:50.250Z,17.67
2023-02-16T22:04:19.841Z,18.83
2023-02-16T22:06:48.949Z,18.27
2023-02-16T22:09:18.640Z,17.83
2023-02-16T22:11:46.472Z,17.90
2023-02-16T22:14:13.288Z,17.70
2023-02-16T22:16:40.681Z,17.60
2023-02-16T22:19:11.148Z,17.50
2023-02-16T22:21:39.855Z,17.47
2023-02-16T22:24:07.985Z,18.53
2023-02-16T22:26:35.656Z,17.83
2023-02-16T22:29:07.216Z,17.97
2023-02-16T22:31:34.865Z,17.73
2023-02-16T22:34:13.201Z,17.20
2023-02-16T22:36:39.995Z,18.40
2023-02-16T22:39:07.165Z,18.10
2023-02-16T22:41:35.015Z,19.23
2023-02-16T22:44:01.689Z,18.83
2023-02-16T22:46:29.882Z,18.47
2023-02-16T22:48:58.207Z,18.83
2023-02-16T22:51:26.451Z,18.73
2023-02-16T22:53:53.103Z,19.07
2023-02-16T22:56:19.878Z,17.90
2023-02-16T22:58:47.345Z,18.17
2023-02-16T23:01:16.637Z,18.63
2023-02-16T23:03:46.464Z,18.90
2023-02-16T23:06:25.128Z,18.33
2023-02-16T23:08:54.690Z,18.07
2023-02-16T23:11:22.006Z,19.17
2023-02-16T23:13:48.747Z,18.47
2023-02-16T23:16:17.880Z,18.97
2023-02-16T23:18:45.641Z,18.37
2023-02-16T23:21:21.411Z,18.53
2023-02-16T23:23:49.805Z,19.23
2023-02-16T23:26:17.467Z,18.33
2023-02-16T23:28:45.127Z,17.33
2023-02-16T23:31:12.311Z,17.83
2023-02-16T23:33:39.498Z,18.93
2023-02-16T23:36:06.807Z,18.47
2023-02-16T23:38:36.593Z,17.40
2023-02-16T23:41:06.689Z,17.80
2023-02-16T23:43:33.912Z,18.50
2023-02-16T23:46:01.101Z,18.97
2023-02-16T23:48:27.764Z,18.30
2023-02-16T23:50:54.908Z,18.83
2023-02-16T23:53:23.005Z,19.23
2023-02-16T23:56:09.346Z,19.03
2023-02-16T23:58:39.784Z,19.53
